sensor_id;sensor_type;location;lat;lon;timestamp;P1;durP1;ratioP1;P2;durP2;ratioP2
9809;SDS011;4944;52.514;13.192;2023-05-07T00:00:48;8.10;;;7.40;;
9809;SDS011;4944;52.514;13.192;2023-05-07T00:03:16;8.53;;;7.83;;
9809;SDS011;4944;52.514;13.192;2023-05-07T00:05:45;8.03;;;7.33;;
9809;SDS011;4944;52.514;13.192;2023-05-07T00:08:13;8.10;;;7.40;;
9809;SDS011;4944;52.514;13.192;2023-05-07T00:10:40;8.30;;;7.60;;
9809;SDS011;4944;52.514;13.192;2023-05-07T00:13:07;8.77;;;8.00;;
9809;SDS011;4944;52.514;13.192;2023-05-07T00:15:34;9.13;;;8.23;;
9809;SDS011;4944;52.514;13.192;2023-05-07T00:18:01;8.47;;;7.63;;
9809;SDS011;4944;52.514;13.192;2023-05-07T00:20:28;8.37;;;7.23;;
9809;SDS011;4944;52.514;13.192;2023-05-07T00:22:56;8.20;;;7.40;;
9809;SDS011;4944;52.514;13.192;2023-05-07T00:25:23;8.20;;;7.40;;
9809;SDS011;4944;52.514;13.192;2023-05-07T00:27:50;8.00;;;7.20;;
9809;SDS011;4944;52.514;13.192;2023-05-07T00:30:17;9.20;;;7.10;;
9809;SDS011;4944;52.514;13.192;2023-05-07T00:32:44;8.63;;;6.90;;
9809;SDS011;4944;52.514;13.192;2023-05-07T00:35:12;7.63;;;6.97;;
9809;SDS011;4944;52.514;13.192;2023-05-07T00:37:39;7.47;;;6.77;;
9809;SDS011;4944;52.514;13.192;2023-05-07T00:40:07;8.43;;;7.03;;
9809;SDS011;4944;52.514;13.192;2023-05-07T00:42:35;7.60;;;6.60;;
9809;SDS011;4944;52.514;13.192;2023-05-07T00:45:03;6.83;;;6.23;;
9809;SDS011;4944;52.514;13.192;2023-05-07T00:47:30;7.53;;;6.83;;
9809;SDS011;4944;52.514;13.192;2023-05-07T00:49:57;7.47;;;6.87;;
9809;SDS011;4944;52.514;13.192;2023-05-07T00:52:25;7.93;;;6.47;;
9809;SDS011;4944;52.514;13.192;2023-05-07T00:54:52;6.93;;;6.23;;
9809;SDS011;4944;52.514;13.192;2023-05-07T00:57:24;6.17;;;5.67;;
9809;SDS011;4944;52.514;13.192;2023-05-07T00:59:51;5.83;;;5.33;;
9809;SDS011;4944;52.514;13.192;2023-05-07T01:02:18;6.73;;;6.13;;
9809;SDS011;4944;52.514;13.192;2023-05-07T01:04:45;6.60;;;6.00;;
9809;SDS011;4944;52.514;13.192;2023-05-07T01:07:12;6.40;;;5.90;;
9809;SDS011;4944;52.514;13.192;2023-05-07T01:09:39;5.90;;;5.40;;
9809;SDS011;4944;52.514;13.192;2023-05-07T01:12:06;6.10;;;5.60;;
9809;SDS011;4944;52.514;13.192;2023-05-07T01:14:35;5.87;;;5.40;;
9809;SDS011;4944;52.514;13.192;2023-05-07T01:17:02;5.63;;;5.13;;
9809;SDS011;4944;52.514;13.192;2023-05-07T01:19:29;6.33;;;5.73;;
9809;SDS011;4944;52.514;13.192;2023-05-07T01:21:59;5.50;;;5.10;;
9809;SDS011;4944;52.514;13.192;2023-05-07T01:24:32;6.10;;;5.57;;
9809;SDS011;4944;52.514;13.192;2023-05-07T01:26:59;6.03;;;5.53;;
9809;SDS011;4944;52.514;13.192;2023-05-07T01:29:27;6.23;;;5.63;;
9809;SDS011;4944;52.514;13.192;2023-05-07T01:31:54;6.40;;;5.90;;
9809;SDS011;4944;52.514;13.192;2023-05-07T01:34:24;8.00;;;5.80;;
9809;SDS011;4944;52.514;13.192;2023-05-07T01:36:53;5.83;;;5.43;;
9809;SDS011;4944;52.514;13.192;2023-05-07T01:39:23;6.50;;;6.00;;
9809;SDS011;4944;52.514;13.192;2023-05-07T01:41:53;6.10;;;5.67;;
9809;SDS011;4944;52.514;13.192;2023-05-07T01:44:21;6.40;;;5.80;;
9809;SDS011;4944;52.514;13.192;2023-05-07T01:46:49;6.37;;;5.83;;
9809;SDS011;4944;52.514;13.192;2023-05-07T01:49:16;6.03;;;5.63;;
9809;SDS011;4944;52.514;13.192;2023-05-07T01:51:43;6.60;;;6.00;;
9809;SDS011;4944;52.514;13.192;2023-05-07T01:54:10;6.60;;;6.10;;
9809;SDS011;4944;52.514;13.192;2023-05-07T01:56:37;6.10;;;5.60;;
9809;SDS011;4944;52.514;13.192;2023-05-07T01:59:05;6.07;;;5.57;;
9809;SDS011;4944;52.514;13.192;2023-05-07T02:01:32;6.13;;;5.57;;
9809;SDS011;4944;52.514;13.192;2023-05-07T02:03:59;6.00;;;5.50;;
9809;SDS011;4944;52.514;13.192;2023-05-07T02:06:26;6.57;;;5.97;;
9809;SDS011;4944;52.514;13.192;2023-05-07T02:08:53;5.83;;;5.33;;
9809;SDS011;4944;52.514;13.192;2023-05-07T02:11:20;5.93;;;5.43;;
9809;SDS011;4944;52.514;13.192;2023-05-07T02:13:47;5.83;;;5.43;;
9809;SDS011;4944;52.514;13.192;2023-05-07T02:16:15;5.80;;;5.30;;
9809;SDS011;4944;52.514;13.192;2023-05-07T02:18:42;5.40;;;5.00;;
9809;SDS011;4944;52.514;13.192;2023-05-07T02:21:09;5.27;;;4.77;;
9809;SDS011;4944;52.514;13.192;2023-05-07T02:23:36;6.43;;;5.83;;
9809;SDS011;4944;52.514;13.192;2023-05-07T02:26:03;5.43;;;5.13;;
9809;SDS011;4944;52.514;13.192;2023-05-07T02:28:30;5.63;;;5.23;;
9809;SDS011;4944;52.514;13.192;2023-05-07T02:31:00;5.93;;;5.53;;
9809;SDS011;4944;52.514;13.192;2023-05-07T02:33:29;6.17;;;5.60;;
9809;SDS011;4944;52.514;13.192;2023-05-07T02:35:56;6.20;;;5.80;;
9809;SDS011;4944;52.514;13.192;2023-05-07T02:38:23;6.40;;;5.90;;
9809;SDS011;4944;52.514;13.192;2023-05-07T02:40:50;6.00;;;5.57;;
9809;SDS011;4944;52.514;13.192;2023-05-07T02:43:17;6.93;;;6.37;;
9809;SDS011;4944;52.514;13.192;2023-05-07T02:45:44;8.63;;;6.50;;
9809;SDS011;4944;52.514;13.192;2023-05-07T02:48:11;6.43;;;5.93;;
9809;SDS011;4944;52.514;13.192;2023-05-07T02:50:39;7.27;;;6.57;;
9809;SDS011;4944;52.514;13.192;2023-05-07T02:53:06;7.33;;;6.73;;
9809;SDS011;4944;52.514;13.192;2023-05-07T02:55:33;7.80;;;7.00;;
9809;SDS011;4944;52.514;13.192;2023-05-07T02:58:00;7.10;;;6.53;;
9809;SDS011;4944;52.514;13.192;2023-05-07T03:00:27;6.80;;;6.30;;
9809;SDS011;4944;52.514;13.192;2023-05-07T03:02:54;7.30;;;6.70;;
9809;SDS011;4944;52.514;13.192;2023-05-07T03:05:21;7.30;;;6.70;;
9809;SDS011;4944;52.514;13.192;2023-05-07T03:07:49;7.53;;;6.77;;
9809;SDS011;4944;52.514;13.192;2023-05-07T03:10:16;7.17;;;6.47;;
9809;SDS011;4944;52.514;13.192;2023-05-07T03:12:43;7.67;;;6.87;;
9809;SDS011;4944;52.514;13.192;2023-05-07T03:15:10;6.90;;;6.40;;
9809;SDS011;4944;52.514;13.192;2023-05-07T03:17:37;6.77;;;6.27;;
9809;SDS011;4944;52.514;13.192;2023-05-07T03:20:05;6.93;;;6.30;;
9809;SDS011;4944;52.514;13.192;2023-05-07T03:22:33;6.37;;;5.83;;
9809;SDS011;4944;52.514;13.192;2023-05-07T03:25:01;6.93;;;6.33;;
9809;SDS011;4944;52.514;13.192;2023-05-07T03:27:29;6.67;;;6.07;;
9809;SDS011;4944;52.514;13.192;2023-05-07T03:29:56;6.87;;;6.27;;
9809;SDS011;4944;52.514;13.192;2023-05-07T03:32:23;6.40;;;5.90;;
9809;SDS011;4944;52.514;13.192;2023-05-07T03:34:50;6.37;;;5.77;;
9809;SDS011;4944;52.514;13.192;2023-05-07T03:37:17;6.70;;;6.13;;
9809;SDS011;4944;52.514;13.192;2023-05-07T03:39:44;6.97;;;6.07;;
9809;SDS011;4944;52.514;13.192;2023-05-07T03:42:12;6.07;;;5.67;;
9809;SDS011;4944;52.514;13.192;2023-05-07T03:44:39;5.50;;;5.00;;
9809;SDS011;4944;52.514;13.192;2023-05-07T03:47:06;5.43;;;5.03;;
9809;SDS011;4944;52.514;13.192;2023-05-07T03:49:35;5.50;;;5.10;;
9809;SDS011;4944;52.514;13.192;2023-05-07T03:52:02;5.70;;;5.30;;
9809;SDS011;4944;52.514;13.192;2023-05-07T03:54:29;5.53;;;5.13;;
9809;SDS011;4944;52.514;13.192;2023-05-07T03:56:56;5.70;;;5.23;;
9809;SDS011;4944;52.514;13.192;2023-05-07T03:59:25;5.53;;;5.03;;
9809;SDS011;4944;52.514;13.192;2023-05-07T04:01:51;6.00;;;5.50;;
9809;SDS011;4944;52.514;13.192;2023-05-07T04:04:18;5.33;;;4.87;;
9809;SDS011;4944;52.514;13.192;2023-05-07T04:06:46;5.97;;;5.50;;
9809;SDS011;4944;52.514;13.192;2023-05-07T04:09:13;5.30;;;4.90;;
9809;SDS011;4944;52.514;13.192;2023-05-07T04:11:40;5.40;;;5.00;;
9809;SDS011;4944;52.514;13.192;2023-05-07T04:14:06;5.27;;;4.87;;
9809;SDS011;4944;52.514;13.192;2023-05-07T04:16:35;5.67;;;5.23;;
9809;SDS011;4944;52.514;13.192;2023-05-07T04:19:02;5.77;;;5.37;;
9809;SDS011;4944;52.514;13.192;2023-05-07T04:21:29;5.63;;;5.00;;
9809;SDS011;4944;52.514;13.192;2023-05-07T04:23:56;5.40;;;5.00;;
9809;SDS011;4944;52.514;13.192;2023-05-07T04:26:22;7.17;;;4.80;;
9809;SDS011;4944;52.514;13.192;2023-05-07T04:28:49;5.63;;;5.13;;
9809;SDS011;4944;52.514;13.192;2023-05-07T04:31:16;5.27;;;4.80;;
9809;SDS011;4944;52.514;13.192;2023-05-07T04:33:45;5.70;;;5.10;;
9809;SDS011;4944;52.514;13.192;2023-05-07T04:36:11;4.83;;;4.53;;
9809;SDS011;4944;52.514;13.192;2023-05-07T04:38:38;5.30;;;4.80;;
9809;SDS011;4944;52.514;13.192;2023-05-07T04:41:05;4.80;;;4.37;;
9809;SDS011;4944;52.514;13.192;2023-05-07T04:43:33;4.57;;;4.27;;
9809;SDS011;4944;52.514;13.192;2023-05-07T04:46:00;5.83;;;5.27;;
9809;SDS011;4944;52.514;13.192;2023-05-07T04:48:27;5.03;;;4.63;;
9809;SDS011;4944;52.514;13.192;2023-05-07T04:50:55;6.37;;;4.60;;
9809;SDS011;4944;52.514;13.192;2023-05-07T04:53:22;5.13;;;4.70;;
9809;SDS011;4944;52.514;13.192;2023-05-07T04:55:54;4.70;;;4.30;;
9809;SDS011;4944;52.514;13.192;2023-05-07T04:58:21;4.87;;;4.57;;
9809;SDS011;4944;52.514;13.192;2023-05-07T05:00:48;5.07;;;4.57;;
9809;SDS011;4944;52.514;13.192;2023-05-07T05:03:15;5.13;;;4.73;;
9809;SDS011;4944;52.514;13.192;2023-05-07T05:05:42;4.67;;;4.27;;
9809;SDS011;4944;52.514;13.192;2023-05-07T05:08:11;5.10;;;4.70;;
9809;SDS011;4944;52.514;13.192;2023-05-07T05:10:37;4.47;;;4.17;;
9809;SDS011;4944;52.514;13.192;2023-05-07T05:13:05;4.40;;;4.00;;
9809;SDS011;4944;52.514;13.192;2023-05-07T05:15:33;4.60;;;4.30;;
9809;SDS011;4944;52.514;13.192;2023-05-07T05:18:00;4.20;;;3.90;;
9809;SDS011;4944;52.514;13.192;2023-05-07T05:20:26;3.90;;;3.60;;
9809;SDS011;4944;52.514;13.192;2023-05-07T05:22:53;3.83;;;3.63;;
9809;SDS011;4944;52.514;13.192;2023-05-07T05:25:22;3.70;;;3.40;;
9809;SDS011;4944;52.514;13.192;2023-05-07T05:27:49;3.90;;;3.60;;
9809;SDS011;4944;52.514;13.192;2023-05-07T05:30:15;4.57;;;3.70;;
9809;SDS011;4944;52.514;13.192;2023-05-07T05:32:42;3.83;;;3.60;;
9809;SDS011;4944;52.514;13.192;2023-05-07T05:35:09;4.03;;;3.73;;
9809;SDS011;4944;52.514;13.192;2023-05-07T05:37:36;3.97;;;3.70;;
9809;SDS011;4944;52.514;13.192;2023-05-07T05:40:03;4.40;;;3.73;;
9809;SDS011;4944;52.514;13.192;2023-05-07T05:42:32;4.03;;;3.73;;
9809;SDS011;4944;52.514;13.192;2023-05-07T05:44:59;4.23;;;3.90;;
9809;SDS011;4944;52.514;13.192;2023-05-07T05:47:26;3.83;;;3.63;;
9809;SDS011;4944;52.514;13.192;2023-05-07T05:49:53;3.60;;;3.40;;
9809;SDS011;4944;52.514;13.192;2023-05-07T05:52:19;3.80;;;3.60;;
9809;SDS011;4944;52.514;13.192;2023-05-07T05:54:49;3.90;;;3.60;;
9809;SDS011;4944;52.514;13.192;2023-05-07T05:57:15;3.80;;;3.60;;
9809;SDS011;4944;52.514;13.192;2023-05-07T05:59:44;4.30;;;4.00;;
9809;SDS011;4944;52.514;13.192;2023-05-07T06:02:12;4.03;;;3.73;;
9809;SDS011;4944;52.514;13.192;2023-05-07T06:04:39;3.73;;;3.43;;
9809;SDS011;4944;52.514;13.192;2023-05-07T06:07:07;4.47;;;4.10;;
9809;SDS011;4944;52.514;13.192;2023-05-07T06:09:34;3.97;;;3.73;;
9809;SDS011;4944;52.514;13.192;2023-05-07T06:12:01;4.27;;;3.97;;
9809;SDS011;4944;52.514;13.192;2023-05-07T06:14:28;3.77;;;3.47;;
9809;SDS011;4944;52.514;13.192;2023-05-07T06:16:56;4.27;;;3.87;;
9809;SDS011;4944;52.514;13.192;2023-05-07T06:19:23;4.10;;;3.80;;
9809;SDS011;4944;52.514;13.192;2023-05-07T06:21:51;4.93;;;4.10;;
9809;SDS011;4944;52.514;13.192;2023-05-07T06:24:18;4.87;;;3.97;;
9809;SDS011;4944;52.514;13.192;2023-05-07T06:26:45;3.73;;;3.43;;
9809;SDS011;4944;52.514;13.192;2023-05-07T06:29:12;5.30;;;4.27;;
9809;SDS011;4944;52.514;13.192;2023-05-07T06:31:39;4.43;;;4.07;;
9809;SDS011;4944;52.514;13.192;2023-05-07T06:34:07;4.27;;;3.97;;
9809;SDS011;4944;52.514;13.192;2023-05-07T06:36:35;4.27;;;3.97;;
9809;SDS011;4944;52.514;13.192;2023-05-07T06:39:01;4.67;;;4.27;;
9809;SDS011;4944;52.514;13.192;2023-05-07T06:41:28;4.30;;;4.00;;
9809;SDS011;4944;52.514;13.192;2023-05-07T06:43:55;4.00;;;3.70;;
9809;SDS011;4944;52.514;13.192;2023-05-07T06:46:22;4.10;;;3.80;;
9809;SDS011;4944;52.514;13.192;2023-05-07T06:48:49;4.23;;;3.83;;
9809;SDS011;4944;52.514;13.192;2023-05-07T06:51:18;9.70;;;3.97;;
9809;SDS011;4944;52.514;13.192;2023-05-07T06:53:45;4.03;;;3.80;;
9809;SDS011;4944;52.514;13.192;2023-05-07T06:56:12;4.70;;;4.30;;
9809;SDS011;4944;52.514;13.192;2023-05-07T06:58:39;4.67;;;4.27;;
9809;SDS011;4944;52.514;13.192;2023-05-07T07:01:06;4.10;;;3.80;;
9809;SDS011;4944;52.514;13.192;2023-05-07T07:03:33;4.07;;;3.77;;
9809;SDS011;4944;52.514;13.192;2023-05-07T07:06:00;4.70;;;4.30;;
9809;SDS011;4944;52.514;13.192;2023-05-07T07:08:29;4.97;;;4.50;;
9809;SDS011;4944;52.514;13.192;2023-05-07T07:10:56;4.20;;;3.90;;
9809;SDS011;4944;52.514;13.192;2023-05-07T07:13:24;4.50;;;4.17;;
9809;SDS011;4944;52.514;13.192;2023-05-07T07:15:51;4.20;;;3.90;;
9809;SDS011;4944;52.514;13.192;2023-05-07T07:18:18;4.70;;;4.30;;
9809;SDS011;4944;52.514;13.192;2023-05-07T07:20:45;4.87;;;4.40;;
9809;SDS011;4944;52.514;13.192;2023-05-07T07:23:12;4.57;;;4.23;;
9809;SDS011;4944;52.514;13.192;2023-05-07T07:25:40;4.10;;;3.80;;
9809;SDS011;4944;52.514;13.192;2023-05-07T07:28:07;5.17;;;3.77;;
9809;SDS011;4944;52.514;13.192;2023-05-07T07:30:35;4.03;;;3.73;;
9809;SDS011;4944;52.514;13.192;2023-05-07T07:33:02;4.00;;;3.70;;
9809;SDS011;4944;52.514;13.192;2023-05-07T07:35:30;3.90;;;3.70;;
9809;SDS011;4944;52.514;13.192;2023-05-07T07:37:57;3.60;;;3.33;;
9809;SDS011;4944;52.514;13.192;2023-05-07T07:40:24;4.00;;;3.70;;
9809;SDS011;4944;52.514;13.192;2023-05-07T07:42:53;4.10;;;3.90;;
9809;SDS011;4944;52.514;13.192;2023-05-07T07:45:20;5.63;;;5.13;;
9809;SDS011;4944;52.514;13.192;2023-05-07T07:47:47;16.47;;;14.77;;
9809;SDS011;4944;52.514;13.192;2023-05-07T07:50:14;4.63;;;3.47;;
9809;SDS011;4944;52.514;13.192;2023-05-07T07:52:41;4.43;;;3.37;;
9809;SDS011;4944;52.514;13.192;2023-05-07T07:55:08;3.27;;;3.07;;
9809;SDS011;4944;52.514;13.192;2023-05-07T07:57:35;3.23;;;3.00;;
9809;SDS011;4944;52.514;13.192;2023-05-07T08:00:05;3.60;;;3.30;;
9809;SDS011;4944;52.514;13.192;2023-05-07T08:02:33;3.73;;;3.43;;
9809;SDS011;4944;52.514;13.192;2023-05-07T08:04:59;4.10;;;3.57;;
9809;SDS011;4944;52.514;13.192;2023-05-07T08:07:26;3.00;;;2.80;;
9809;SDS011;4944;52.514;13.192;2023-05-07T08:09:53;3.03;;;2.70;;
9809;SDS011;4944;52.514;13.192;2023-05-07T08:12:20;3.00;;;2.80;;
9809;SDS011;4944;52.514;13.192;2023-05-07T08:14:47;2.83;;;2.53;;
9809;SDS011;4944;52.514;13.192;2023-05-07T08:17:16;3.07;;;2.87;;
9809;SDS011;4944;52.514;13.192;2023-05-07T08:19:42;3.33;;;3.07;;
9809;SDS011;4944;52.514;13.192;2023-05-07T08:22:09;3.27;;;3.03;;
9809;SDS011;4944;52.514;13.192;2023-05-07T08:24:36;3.80;;;2.63;;
9809;SDS011;4944;52.514;13.192;2023-05-07T08:27:03;3.00;;;2.70;;
9809;SDS011;4944;52.514;13.192;2023-05-07T08:29:30;3.50;;;2.70;;
9809;SDS011;4944;52.514;13.192;2023-05-07T08:31:57;3.23;;;2.93;;
9809;SDS011;4944;52.514;13.192;2023-05-07T08:34:25;3.00;;;2.80;;
9809;SDS011;4944;52.514;13.192;2023-05-07T08:36:52;2.67;;;2.47;;
9809;SDS011;4944;52.514;13.192;2023-05-07T08:39:20;3.20;;;2.50;;
9809;SDS011;4944;52.514;13.192;2023-05-07T08:41:47;2.60;;;2.40;;
9809;SDS011;4944;52.514;13.192;2023-05-07T08:44:18;2.50;;;2.30;;
9809;SDS011;4944;52.514;13.192;2023-05-07T08:46:48;2.40;;;2.20;;
9809;SDS011;4944;52.514;13.192;2023-05-07T08:49:19;4.20;;;2.40;;
9809;SDS011;4944;52.514;13.192;2023-05-07T08:51:47;2.87;;;2.67;;
9809;SDS011;4944;52.514;13.192;2023-05-07T08:54:15;2.40;;;2.30;;
9809;SDS011;4944;52.514;13.192;2023-05-07T08:56:42;2.43;;;2.20;;
9809;SDS011;4944;52.514;13.192;2023-05-07T08:59:10;2.30;;;2.20;;
9809;SDS011;4944;52.514;13.192;2023-05-07T09:01:37;3.17;;;2.37;;
9809;SDS011;4944;52.514;13.192;2023-05-07T09:04:04;2.67;;;2.47;;
9809;SDS011;4944;52.514;13.192;2023-05-07T09:06:31;2.73;;;2.40;;
9809;SDS011;4944;52.514;13.192;2023-05-07T09:09:00;2.63;;;2.40;;
9809;SDS011;4944;52.514;13.192;2023-05-07T09:11:30;2.43;;;2.23;;
9809;SDS011;4944;52.514;13.192;2023-05-07T09:13:57;3.10;;;2.50;;
9809;SDS011;4944;52.514;13.192;2023-05-07T09:16:26;2.77;;;2.57;;
9809;SDS011;4944;52.514;13.192;2023-05-07T09:18:57;2.30;;;2.20;;
9809;SDS011;4944;52.514;13.192;2023-05-07T09:21:24;2.57;;;2.47;;
9809;SDS011;4944;52.514;13.192;2023-05-07T09:23:52;3.20;;;2.43;;
9809;SDS011;4944;52.514;13.192;2023-05-07T09:26:22;3.77;;;2.63;;
9809;SDS011;4944;52.514;13.192;2023-05-07T09:28:49;2.60;;;2.40;;
9809;SDS011;4944;52.514;13.192;2023-05-07T09:31:17;2.97;;;2.70;;
9809;SDS011;4944;52.514;13.192;2023-05-07T09:33:44;2.47;;;2.37;;
9809;SDS011;4944;52.514;13.192;2023-05-07T09:36:11;2.80;;;2.60;;
9809;SDS011;4944;52.514;13.192;2023-05-07T09:38:38;2.40;;;2.30;;
9809;SDS011;4944;52.514;13.192;2023-05-07T09:41:05;2.43;;;2.20;;
9809;SDS011;4944;52.514;13.192;2023-05-07T09:43:35;2.83;;;2.40;;
9809;SDS011;4944;52.514;13.192;2023-05-07T09:46:06;2.50;;;2.20;;
9809;SDS011;4944;52.514;13.192;2023-05-07T09:48:35;2.23;;;2.03;;
9809;SDS011;4944;52.514;13.192;2023-05-07T09:51:06;2.37;;;2.17;;
9809;SDS011;4944;52.514;13.192;2023-05-07T09:53:41;2.40;;;2.20;;
9809;SDS011;4944;52.514;13.192;2023-05-07T09:56:10;2.50;;;2.30;;
9809;SDS011;4944;52.514;13.192;2023-05-07T09:58:40;2.20;;;2.10;;
9809;SDS011;4944;52.514;13.192;2023-05-07T10:01:08;2.53;;;2.33;;
9809;SDS011;4944;52.514;13.192;2023-05-07T10:03:38;2.17;;;2.07;;
9809;SDS011;4944;52.514;13.192;2023-05-07T10:06:06;2.23;;;2.13;;
9809;SDS011;4944;52.514;13.192;2023-05-07T10:08:35;2.53;;;2.33;;
9809;SDS011;4944;52.514;13.192;2023-05-07T10:11:02;2.33;;;2.23;;
9809;SDS011;4944;52.514;13.192;2023-05-07T10:13:30;2.30;;;2.20;;
9809;SDS011;4944;52.514;13.192;2023-05-07T10:15:59;2.53;;;2.43;;
9809;SDS011;4944;52.514;13.192;2023-05-07T10:18:27;3.90;;;2.40;;
9809;SDS011;4944;52.514;13.192;2023-05-07T10:21:00;2.83;;;2.10;;
9809;SDS011;4944;52.514;13.192;2023-05-07T10:23:33;2.40;;;2.30;;
9809;SDS011;4944;52.514;13.192;2023-05-07T10:26:02;2.10;;;2.00;;
9809;SDS011;4944;52.514;13.192;2023-05-07T10:28:30;2.37;;;2.27;;
9809;SDS011;4944;52.514;13.192;2023-05-07T10:31:10;1.87;;;1.77;;
9809;SDS011;4944;52.514;13.192;2023-05-07T10:33:50;2.97;;;2.40;;
9809;SDS011;4944;52.514;13.192;2023-05-07T10:36:18;2.60;;;2.40;;
9809;SDS011;4944;52.514;13.192;2023-05-07T10:38:47;2.10;;;2.00;;
9809;SDS011;4944;52.514;13.192;2023-05-07T10:41:14;1.77;;;1.67;;
9809;SDS011;4944;52.514;13.192;2023-05-07T10:43:44;1.80;;;1.70;;
9809;SDS011;4944;52.514;13.192;2023-05-07T10:46:15;2.70;;;1.70;;
9809;SDS011;4944;52.514;13.192;2023-05-07T10:51:36;1.90;;;1.63;;
9809;SDS011;4944;52.514;13.192;2023-05-07T10:56:48;3.30;;;1.63;;
9809;SDS011;4944;52.514;13.192;2023-05-07T10:59:32;3.73;;;1.77;;
9809;SDS011;4944;52.514;13.192;2023-05-07T11:02:08;1.83;;;1.70;;
9809;SDS011;4944;52.514;13.192;2023-05-07T11:04:36;1.87;;;1.40;;
9809;SDS011;4944;52.514;13.192;2023-05-07T11:10:04;1.50;;;1.50;;
9809;SDS011;4944;52.514;13.192;2023-05-07T11:12:48;1.67;;;1.43;;
9809;SDS011;4944;52.514;13.192;2023-05-07T11:18:06;1.90;;;1.50;;
9809;SDS011;4944;52.514;13.192;2023-05-07T11:26:47;1.67;;;1.57;;
9809;SDS011;4944;52.514;13.192;2023-05-07T11:29:15;1.50;;;1.40;;
9809;SDS011;4944;52.514;13.192;2023-05-07T11:31:43;1.30;;;1.30;;
9809;SDS011;4944;52.514;13.192;2023-05-07T11:34:12;2.43;;;1.50;;
9809;SDS011;4944;52.514;13.192;2023-05-07T11:36:43;1.60;;;1.50;;
9809;SDS011;4944;52.514;13.192;2023-05-07T11:39:25;1.30;;;1.30;;
9809;SDS011;4944;52.514;13.192;2023-05-07T11:41:53;1.37;;;1.20;;
9809;SDS011;4944;52.514;13.192;2023-05-07T11:44:20;1.93;;;1.43;;
9809;SDS011;4944;52.514;13.192;2023-05-07T11:46:47;1.37;;;1.27;;
9809;SDS011;4944;52.514;13.192;2023-05-07T11:49:16;1.50;;;1.50;;
9809;SDS011;4944;52.514;13.192;2023-05-07T11:51:43;2.57;;;1.80;;
9809;SDS011;4944;52.514;13.192;2023-05-07T11:54:11;1.60;;;1.50;;
9809;SDS011;4944;52.514;13.192;2023-05-07T11:56:42;4.77;;;1.53;;
9809;SDS011;4944;52.514;13.192;2023-05-07T11:59:10;1.50;;;1.40;;
9809;SDS011;4944;52.514;13.192;2023-05-07T12:01:36;1.27;;;1.27;;
9809;SDS011;4944;52.514;13.192;2023-05-07T12:04:03;1.63;;;1.40;;
9809;SDS011;4944;52.514;13.192;2023-05-07T12:06:35;1.50;;;1.40;;
9809;SDS011;4944;52.514;13.192;2023-05-07T12:09:03;1.87;;;1.50;;
9809;SDS011;4944;52.514;13.192;2023-05-07T12:11:32;1.50;;;1.40;;
9809;SDS011;4944;52.514;13.192;2023-05-07T12:13:59;1.73;;;1.63;;
9809;SDS011;4944;52.514;13.192;2023-05-07T12:16:26;1.80;;;1.70;;
9809;SDS011;4944;52.514;13.192;2023-05-07T12:18:53;1.60;;;1.50;;
9809;SDS011;4944;52.514;13.192;2023-05-07T12:21:20;1.60;;;1.50;;
9809;SDS011;4944;52.514;13.192;2023-05-07T12:23:49;1.57;;;1.47;;
9809;SDS011;4944;52.514;13.192;2023-05-07T12:26:16;2.33;;;1.57;;
9809;SDS011;4944;52.514;13.192;2023-05-07T12:28:45;1.90;;;1.80;;
9809;SDS011;4944;52.514;13.192;2023-05-07T12:31:13;2.00;;;1.50;;
9809;SDS011;4944;52.514;13.192;2023-05-07T12:33:40;1.73;;;1.60;;
9809;SDS011;4944;52.514;13.192;2023-05-07T12:36:08;2.07;;;1.40;;
9809;SDS011;4944;52.514;13.192;2023-05-07T12:38:38;1.70;;;1.60;;
9809;SDS011;4944;52.514;13.192;2023-05-07T12:41:07;2.70;;;1.40;;
9809;SDS011;4944;52.514;13.192;2023-05-07T12:43:36;1.37;;;1.27;;
9809;SDS011;4944;52.514;13.192;2023-05-07T12:46:04;1.93;;;1.43;;
9809;SDS011;4944;52.514;13.192;2023-05-07T12:48:31;1.50;;;1.40;;
9809;SDS011;4944;52.514;13.192;2023-05-07T12:51:00;1.50;;;1.40;;
9809;SDS011;4944;52.514;13.192;2023-05-07T12:53:28;1.63;;;1.40;;
9809;SDS011;4944;52.514;13.192;2023-05-07T12:55:56;1.57;;;1.47;;
9809;SDS011;4944;52.514;13.192;2023-05-07T12:58:26;2.33;;;1.40;;
9809;SDS011;4944;52.514;13.192;2023-05-07T13:00:54;1.63;;;1.50;;
9809;SDS011;4944;52.514;13.192;2023-05-07T13:03:27;2.80;;;1.70;;
9809;SDS011;4944;52.514;13.192;2023-05-07T13:05:55;1.53;;;1.40;;
9809;SDS011;4944;52.514;13.192;2023-05-07T13:08:24;1.40;;;1.27;;
9809;SDS011;4944;52.514;13.192;2023-05-07T13:10:52;1.70;;;1.60;;
9809;SDS011;4944;52.514;13.192;2023-05-07T13:13:19;1.53;;;1.43;;
9809;SDS011;4944;52.514;13.192;2023-05-07T13:15:48;1.60;;;1.50;;
9809;SDS011;4944;52.514;13.192;2023-05-07T13:18:15;1.17;;;1.17;;
9809;SDS011;4944;52.514;13.192;2023-05-07T13:20:42;1.30;;;1.20;;
9809;SDS011;4944;52.514;13.192;2023-05-07T13:23:09;1.73;;;1.27;;
9809;SDS011;4944;52.514;13.192;2023-05-07T13:25:36;0.97;;;0.97;;
9809;SDS011;4944;52.514;13.192;2023-05-07T13:28:03;1.50;;;1.40;;
9809;SDS011;4944;52.514;13.192;2023-05-07T13:30:30;1.13;;;1.13;;
9809;SDS011;4944;52.514;13.192;2023-05-07T13:32:58;1.30;;;1.13;;
9809;SDS011;4944;52.514;13.192;2023-05-07T13:35:25;1.40;;;1.30;;
9809;SDS011;4944;52.514;13.192;2023-05-07T13:37:52;1.17;;;1.13;;
9809;SDS011;4944;52.514;13.192;2023-05-07T13:40:19;1.70;;;1.60;;
9809;SDS011;4944;52.514;13.192;2023-05-07T13:42:47;3.83;;;1.57;;
9809;SDS011;4944;52.514;13.192;2023-05-07T13:45:14;2.10;;;1.57;;
9809;SDS011;4944;52.514;13.192;2023-05-07T13:47:41;1.50;;;1.40;;
9809;SDS011;4944;52.514;13.192;2023-05-07T13:50:10;1.10;;;1.10;;
9809;SDS011;4944;52.514;13.192;2023-05-07T13:52:39;1.23;;;1.23;;
9809;SDS011;4944;52.514;13.192;2023-05-07T13:55:08;1.40;;;1.30;;
9809;SDS011;4944;52.514;13.192;2023-05-07T13:57:35;1.47;;;1.30;;
9809;SDS011;4944;52.514;13.192;2023-05-07T14:00:03;1.30;;;1.20;;
9809;SDS011;4944;52.514;13.192;2023-05-07T14:02:31;1.90;;;1.57;;
9809;SDS011;4944;52.514;13.192;2023-05-07T14:04:58;1.87;;;1.27;;
9809;SDS011;4944;52.514;13.192;2023-05-07T14:07:26;2.13;;;1.33;;
9809;SDS011;4944;52.514;13.192;2023-05-07T14:09:53;1.60;;;1.23;;
9809;SDS011;4944;52.514;13.192;2023-05-07T14:12:20;1.73;;;1.40;;
9809;SDS011;4944;52.514;13.192;2023-05-07T14:14:47;1.40;;;1.30;;
9809;SDS011;4944;52.514;13.192;2023-05-07T14:17:15;1.33;;;1.17;;
9809;SDS011;4944;52.514;13.192;2023-05-07T14:19:42;1.93;;;1.10;;
9809;SDS011;4944;52.514;13.192;2023-05-07T14:22:09;1.50;;;1.40;;
9809;SDS011;4944;52.514;13.192;2023-05-07T14:24:37;3.73;;;1.47;;
9809;SDS011;4944;52.514;13.192;2023-05-07T14:27:04;1.67;;;1.17;;
9809;SDS011;4944;52.514;13.192;2023-05-07T14:29:32;1.07;;;1.07;;
9809;SDS011;4944;52.514;13.192;2023-05-07T14:32:00;1.65;;;1.25;;
9809;SDS011;4944;52.514;13.192;2023-05-07T14:34:28;1.20;;;1.20;;
9809;SDS011;4944;52.514;13.192;2023-05-07T14:36:55;1.20;;;1.20;;
9809;SDS011;4944;52.514;13.192;2023-05-07T14:39:22;0.80;;;0.80;;
9809;SDS011;4944;52.514;13.192;2023-05-07T14:41:50;1.83;;;1.13;;
9809;SDS011;4944;52.514;13.192;2023-05-07T14:44:19;1.00;;;0.90;;
9809;SDS011;4944;52.514;13.192;2023-05-07T14:46:46;1.63;;;1.20;;
9809;SDS011;4944;52.514;13.192;2023-05-07T14:49:13;2.40;;;1.20;;
9809;SDS011;4944;52.514;13.192;2023-05-07T14:51:42;2.77;;;1.23;;
9809;SDS011;4944;52.514;13.192;2023-05-07T14:54:10;0.95;;;0.95;;
9809;SDS011;4944;52.514;13.192;2023-05-07T14:56:37;1.10;;;1.10;;
9809;SDS011;4944;52.514;13.192;2023-05-07T14:59:05;1.02;;;1.02;;
9809;SDS011;4944;52.514;13.192;2023-05-07T15:01:33;2.25;;;1.27;;
9809;SDS011;4944;52.514;13.192;2023-05-07T15:04:03;3.17;;;1.00;;
9809;SDS011;4944;52.514;13.192;2023-05-07T15:06:30;1.17;;;1.17;;
9809;SDS011;4944;52.514;13.192;2023-05-07T15:08:58;2.92;;;1.20;;
9809;SDS011;4944;52.514;13.192;2023-05-07T15:11:25;1.40;;;1.30;;
9809;SDS011;4944;52.514;13.192;2023-05-07T15:13:52;1.00;;;1.00;;
9809;SDS011;4944;52.514;13.192;2023-05-07T15:16:20;2.50;;;1.37;;
9809;SDS011;4944;52.514;13.192;2023-05-07T15:18:48;1.50;;;1.40;;
9809;SDS011;4944;52.514;13.192;2023-05-07T15:21:14;1.77;;;1.30;;